Time;durP1;ratioP1;P1;durP2;ratioP2;P2;SDS_P1;SDS_P2;PMS_P1;PMS_P2;Temp;Humidity;BMP_temperature;BMP_pressure;BME280_temperature;BME280_humidity;BME280_pressure;Samples;Min_cycle;Max_cycle;Signal;HPM_P1;HPM_P2
2022/04/15 00:00:09;;;;;;;1.63;0.40;;;28.30;93.50;;;;;;5031413;28;20067;-74
2022/04/15 00:02:37;;;;;;;1.80;0.90;;;28.80;92.90;;;;;;5035790;28;20036;-76
2022/04/15 00:05:29;;;;;;;1.20;0.50;;;28.70;93.20;;;;;;5038267;28;20353;-75
2022/04/15 00:07:52;;;;;;;0.93;0.40;;;28.90;92.60;;;;;;5029573;28;20060;-77
2022/04/15 00:10:19;;;;;;;1.67;0.40;;;28.70;92.40;;;;;;5040176;28;20112;-78
2022/04/15 00:12:47;;;;;;;1.02;0.40;;;28.20;93.60;;;;;;5029498;28;20124;-75
2022/04/15 00:15:15;;;;;;;2.80;0.50;;;28.40;92.70;;;;;;5031767;28;20379;-76
2022/04/15 00:17:42;;;;;;;0.52;0.32;;;28.20;92.60;;;;;;5031861;28;20124;-76
2022/04/15 00:20:10;;;;;;;4.43;0.70;;;28.50;93.90;;;;;;5035003;28;20094;-73
2022/04/15 00:22:38;;;;;;;1.83;0.32;;;28.90;93.90;;;;;;5036951;28;20070;-73
2022/04/15 00:25:07;;;;;;;1.15;0.50;;;29.30;92.60;;;;;;5042473;28;20501;-76
2022/04/15 00:27:34;;;;;;;1.25;0.40;;;29.50;91.80;;;;;;5035581;28;20068;-78
2022/04/15 00:30:03;;;;;;;0.65;0.32;;;29.50;91.40;;;;;;5033816;28;20476;-73
2022/04/15 00:32:30;;;;;;;2.35;0.55;;;29.50;91.30;;;;;;5028972;28;20041;-73
2022/04/15 00:34:58;;;;;;;3.28;1.27;;;29.50;91.30;;;;;;5032652;28;20037;-73
2022/04/15 00:37:25;;;;;;;1.05;0.65;;;29.80;91.60;;;;;;5030481;28;20059;-72
2022/04/15 00:39:53;;;;;;;2.13;0.50;;;29.70;91.50;;;;;;5031615;28;20120;-75
2022/04/15 00:42:24;;;;;;;3.50;0.70;;;29.90;91.10;;;;;;5028885;28;20033;-75
2022/04/15 00:44:58;;;;;;;0.75;0.47;;;29.60;90.90;;;;;;5030503;28;20095;-74
2022/04/15 00:47:37;;;;;;;1.33;0.40;;;29.90;91.50;;;;;;5039922;28;20144;-73
2022/04/15 00:50:06;;;;;;;2.63;0.30;;;29.90;90.40;;;;;;5026885;28;20498;-73
2022/04/15 00:52:40;;;;;;;1.50;0.60;;;29.90;90.90;;;;;;5031520;28;20690;-73
2022/04/15 00:55:08;;;;;;;0.90;0.30;;;30.10;90.30;;;;;;5038663;28;20029;-73
2022/04/15 00:57:40;;;;;;;1.40;0.38;;;29.50;90.40;;;;;;5052873;28;20097;-75
2022/04/15 01:00:09;;;;;;;1.67;0.40;;;28.60;90.90;;;;;;5049651;28;20045;-75
2022/04/15 01:02:37;;;;;;;3.17;0.45;;;28.20;91.60;;;;;;5036876;28;20082;-76
2022/04/15 01:05:07;;;;;;;1.60;0.35;;;28.40;92.40;;;;;;5033774;28;20076;-75
2022/04/15 01:07:36;;;;;;;2.10;0.30;;;28.70;92.00;;;;;;5031820;28;20033;-74
2022/04/15 01:10:07;;;;;;;2.45;0.20;;;28.70;91.30;;;;;;5031628;28;20108;-75
2022/04/15 01:12:39;;;;;;;1.20;0.30;;;28.40;91.70;;;;;;5032431;28;20028;-75
2022/04/15 01:15:10;;;;;;;3.10;0.43;;;28.60;91.50;;;;;;5031786;28;20387;-75
2022/04/15 01:17:38;;;;;;;1.23;0.30;;;28.70;91.70;;;;;;5029176;28;20025;-76
2022/04/15 01:20:07;;;;;;;1.63;0.30;;;28.70;91.50;;;;;;5045926;28;20029;-74
2022/04/15 01:22:39;;;;;;;1.40;0.20;;;28.90;91.00;;;;;;5058604;28;20037;-78
2022/04/15 01:25:08;;;;;;;2.83;0.40;;;29.20;91.30;;;;;;5053386;28;20032;-78
2022/04/15 01:27:37;;;;;;;0.38;0.32;;;29.10;91.60;;;;;;5047366;28;20095;-78
2022/04/15 01:30:10;;;;;;;0.60;0.20;;;29.30;90.60;;;;;;5050819;28;20035;-79
2022/04/15 01:32:38;;;;;;;0.93;0.40;;;29.30;90.90;;;;;;5045766;28;20854;-73
2022/04/15 01:35:08;;;;;;;3.90;0.35;;;29.20;91.10;;;;;;5036004;28;20106;-72
2022/04/15 01:37:37;;;;;;;1.08;0.32;;;29.10;91.20;;;;;;5038278;28;20033;-72
2022/04/15 01:40:07;;;;;;;3.03;0.30;;;28.90;91.10;;;;;;5033329;28;20017;-72
2022/04/15 01:42:36;;;;;;;1.17;0.25;;;29.10;91.70;;;;;;5032676;28;20043;-75
2022/04/15 01:45:04;;;;;;;2.40;0.38;;;28.80;90.70;;;;;;5035166;28;20135;-76
2022/04/15 01:47:32;;;;;;;1.40;0.20;;;28.60;89.30;;;;;;5047287;28;20037;-77
2022/04/15 01:49:59;;;;;;;0.70;0.10;;;28.60;90.10;;;;;;5051842;28;20028;-75
2022/04/15 01:52:27;;;;;;;1.08;0.30;;;28.70;90.20;;;;;;5044486;28;20475;-74
2022/04/15 01:54:54;;;;;;;1.08;0.20;;;28.80;90.60;;;;;;5049207;28;20048;-77
2022/04/15 01:57:23;;;;;;;1.30;0.10;;;28.90;90.60;;;;;;5044377;28;20047;-75
2022/04/15 01:59:51;;;;;;;1.40;0.20;;;29.30;89.80;;;;;;5050321;28;20060;-76
2022/04/15 02:02:21;;;;;;;3.58;0.75;;;29.30;87.70;;;;;;5047800;28;20033;-75
2022/04/15 02:04:49;;;;;;;1.13;0.40;;;29.30;84.80;;;;;;5055848;28;20430;-74
2022/04/15 02:07:16;;;;;;;0.82;0.10;;;29.30;87.60;;;;;;5046137;28;20040;-77
2022/04/15 02:09:43;;;;;;;0.95;0.15;;;29.40;87.80;;;;;;5042017;28;20125;-75
2022/04/15 02:12:11;;;;;;;1.08;0.20;;;29.20;87.00;;;;;;5039468;28;20090;-75
2022/04/15 02:14:38;;;;;;;2.28;0.20;;;29.00;87.00;;;;;;5047581;28;20040;-75
2022/04/15 02:17:06;;;;;;;1.83;0.57;;;29.20;88.90;;;;;;5041010;28;20452;-71
2022/04/15 02:19:33;;;;;;;4.43;0.30;;;29.40;88.00;;;;;;5051594;28;20087;-73
2022/04/15 02:22:00;;;;;;;0.93;0.22;;;29.40;87.90;;;;;;5049813;28;20028;-73
2022/04/15 02:24:28;;;;;;;3.75;0.40;;;29.20;88.60;;;;;;5041043;28;20039;-74
2022/04/15 02:26:55;;;;;;;1.15;0.30;;;29.10;88.70;;;;;;5035695;28;20080;-74
2022/04/15 02:29:23;;;;;;;1.42;0.20;;;29.30;89.50;;;;;;5053200;28;20121;-75
2022/04/15 02:31:50;;;;;;;1.38;0.17;;;29.40;88.10;;;;;;5052857;28;20036;-77
2022/04/15 02:34:19;;;;;;;0.52;0.10;;;29.20;88.60;;;;;;5051273;28;20040;-73
2022/04/15 02:36:46;;;;;;;0.50;0.10;;;29.10;88.60;;;;;;5043127;28;20025;-75
2022/04/15 02:39:13;;;;;;;1.77;0.28;;;29.10;89.70;;;;;;5043422;28;20050;-74
2022/04/15 02:41:42;;;;;;;1.50;0.17;;;29.20;88.40;;;;;;5052531;28;20031;-76
2022/04/15 02:44:10;;;;;;;0.47;0.13;;;29.00;89.10;;;;;;5051589;28;20411;-76
2022/04/15 02:46:37;;;;;;;1.67;0.20;;;29.00;87.70;;;;;;5043016;28;21063;-76
2022/04/15 02:49:05;;;;;;;1.13;0.47;;;29.20;89.70;;;;;;5031659;28;20029;-74
2022/04/15 02:51:34;;;;;;;0.17;0.00;;;29.30;87.30;;;;;;5043003;28;20037;-74
2022/04/15 02:54:01;;;;;;;1.08;0.43;;;29.40;86.80;;;;;;5049860;28;20479;-73
2022/04/15 02:56:28;;;;;;;0.35;0.10;;;29.30;88.60;;;;;;5045271;28;20039;-75
2022/04/15 02:58:56;;;;;;;2.38;0.50;;;29.50;87.10;;;;;;5039505;28;20451;-75
2022/04/15 03:01:23;;;;;;;1.33;0.40;;;29.30;87.30;;;;;;5044824;28;20186;-74
2022/04/15 03:03:50;;;;;;;1.80;0.10;;;29.20;87.40;;;;;;5044661;28;20040;-73
2022/04/15 03:06:18;;;;;;;0.47;0.13;;;29.20;88.40;;;;;;5049068;28;20029;-75
2022/04/15 03:08:46;;;;;;;2.90;0.20;;;29.40;88.80;;;;;;5049208;28;20025;-73
2022/04/15 03:11:13;;;;;;;0.88;0.20;;;29.50;89.60;;;;;;5047891;28;20100;-75
2022/04/15 03:13:41;;;;;;;0.73;0.17;;;29.50;86.80;;;;;;5046536;28;20040;-73
2022/04/15 03:16:08;;;;;;;0.43;0.20;;;29.20;87.10;;;;;;5048617;28;20494;-75
2022/04/15 03:18:36;;;;;;;3.13;0.77;;;29.20;89.30;;;;;;5049598;28;20033;-75
2022/04/15 03:21:04;;;;;;;1.42;0.20;;;29.00;86.80;;;;;;5052057;28;20033;-74
2022/04/15 03:23:31;;;;;;;1.13;0.20;;;29.00;87.60;;;;;;5042941;28;20113;-74
2022/04/15 03:25:58;;;;;;;0.45;0.20;;;29.00;87.10;;;;;;5039881;28;21356;-76
2022/04/15 03:28:26;;;;;;;2.05;0.50;;;28.50;87.40;;;;;;5048138;28;20494;-76
2022/04/15 03:30:53;;;;;;;1.25;0.30;;;28.60;88.70;;;;;;5034934;28;20083;-74
2022/04/15 03:33:20;;;;;;;3.08;2.05;;;28.80;88.30;;;;;;5043117;28;20144;-73
2022/04/15 03:35:48;;;;;;;0.38;0.20;;;28.90;86.50;;;;;;5050710;28;20116;-73
2022/04/15 03:38:16;;;;;;;1.30;0.30;;;28.80;88.40;;;;;;5044226;28;20525;-76
2022/04/15 03:40:43;;;;;;;0.40;0.20;;;28.70;87.50;;;;;;5058875;28;20041;-74
2022/04/15 03:43:10;;;;;;;2.13;0.50;;;28.50;87.60;;;;;;5039604;28;20744;-75
2022/04/15 03:45:38;;;;;;;0.60;0.08;;;28.40;88.70;;;;;;5048461;28;21720;-76
2022/04/15 03:48:05;;;;;;;1.38;0.20;;;28.40;88.40;;;;;;5040015;28;20056;-77
2022/04/15 03:50:33;;;;;;;1.15;0.20;;;28.50;87.90;;;;;;5041440;28;20037;-75
2022/04/15 03:53:01;;;;;;;0.75;0.10;;;28.60;87.80;;;;;;5053896;28;20033;-77
2022/04/15 03:55:28;;;;;;;0.82;0.20;;;28.70;88.00;;;;;;5035610;28;20174;-76
2022/04/15 03:57:55;;;;;;;2.85;0.30;;;28.50;89.00;;;;;;5041785;28;20053;-74
2022/04/15 04:00:24;;;;;;;1.45;0.20;;;28.50;88.70;;;;;;5049738;28;20033;-74
2022/04/15 04:02:54;;;;;;;0.43;0.20;;;28.40;88.50;;;;;;5051290;28;20108;-75
2022/04/15 04:05:23;;;;;;;0.43;0.10;;;28.50;89.20;;;;;;5040731;28;20132;-76
2022/04/15 04:07:51;;;;;;;2.05;0.20;;;28.30;88.30;;;;;;5041032;28;20035;-76
2022/04/15 04:10:19;;;;;;;1.80;0.32;;;28.50;87.60;;;;;;5039667;28;20036;-77
2022/04/15 04:12:50;;;;;;;0.43;0.30;;;28.40;86.80;;;;;;5030631;28;20112;-78
2022/04/15 04:15:18;;;;;;;0.55;0.10;;;28.40;88.10;;;;;;5030447;28;20039;-77
2022/04/15 04:17:46;;;;;;;1.55;0.35;;;28.20;87.80;;;;;;5031766;28;20120;-75
2022/04/15 04:20:16;;;;;;;0.57;0.10;;;28.20;88.10;;;;;;5033735;28;20083;-77
2022/04/15 04:22:44;;;;;;;3.63;0.63;;;28.40;87.70;;;;;;5031109;28;20049;-76
2022/04/15 04:25:12;;;;;;;0.20;0.10;;;28.20;87.60;;;;;;5036032;28;20388;-74
2022/04/15 04:27:41;;;;;;;0.40;0.17;;;28.10;87.20;;;;;;5033538;28;20052;-74
2022/04/15 04:30:09;;;;;;;0.60;0.20;;;28.20;87.70;;;;;;5032895;28;20051;-73
2022/04/15 04:32:37;;;;;;;1.35;0.20;;;28.20;86.80;;;;;;5031052;28;20539;-74
2022/04/15 04:35:06;;;;;;;0.43;0.10;;;28.30;86.60;;;;;;5054738;28;20052;-75
2022/04/15 04:37:34;;;;;;;1.42;0.10;;;28.10;87.10;;;;;;5051377;28;20566;-73
2022/04/15 04:40:02;;;;;;;0.70;0.30;;;28.00;86.40;;;;;;5048326;28;20109;-72
2022/04/15 04:42:30;;;;;;;2.75;0.75;;;28.00;88.80;;;;;;5032026;28;20085;-75
2022/04/15 04:44:58;;;;;;;2.70;0.30;;;28.10;88.20;;;;;;5035570;28;20049;-77
2022/04/15 04:47:26;;;;;;;0.93;0.10;;;28.00;88.20;;;;;;5033706;28;20037;-74
2022/04/15 04:49:55;;;;;;;0.65;0.30;;;27.90;86.70;;;;;;5030356;28;20064;-74
2022/04/15 04:52:24;;;;;;;0.57;0.13;;;28.00;88.90;;;;;;5030758;28;20025;-75
2022/04/15 04:54:52;;;;;;;0.43;0.13;;;27.80;87.80;;;;;;5033843;28;20475;-74
2022/04/15 04:57:19;;;;;;;0.17;0.10;;;27.80;88.40;;;;;;5028530;28;20033;-72
2022/04/15 04:59:47;;;;;;;1.55;0.20;;;27.70;88.50;;;;;;5030690;28;20036;-74
2022/04/15 05:02:14;;;;;;;2.28;0.10;;;27.60;88.50;;;;;;5031536;28;20027;-73
2022/04/15 05:04:43;;;;;;;0.20;0.10;;;27.50;88.20;;;;;;5036466;28;20060;-74
2022/04/15 05:07:10;;;;;;;0.52;0.25;;;27.70;90.00;;;;;;5034276;28;20036;-75
2022/04/15 05:09:41;;;;;;;2.13;0.20;;;27.80;88.60;;;;;;5034626;28;20040;-73
2022/04/15 05:12:10;;;;;;;0.40;0.20;;;27.80;88.60;;;;;;5034346;28;20035;-73
2022/04/15 05:14:39;;;;;;;2.50;0.25;;;27.60;88.60;;;;;;5034810;28;20040;-74
2022/04/15 05:17:10;;;;;;;0.65;0.40;;;27.50;89.30;;;;;;5036956;28;20060;-73
2022/04/15 05:19:37;;;;;;;1.25;0.20;;;27.40;88.80;;;;;;5041909;28;20033;-77
2022/04/15 05:22:05;;;;;;;1.20;0.20;;;27.20;88.70;;;;;;5052642;28;20037;-77
2022/04/15 05:24:32;;;;;;;1.73;0.30;;;26.90;89.90;;;;;;5064307;28;20035;-73
2022/04/15 05:26:59;;;;;;;0.80;0.40;;;26.50;90.00;;;;;;5048877;28;20084;-73
2022/04/15 05:29:27;;;;;;;2.55;2.22;;;26.30;90.20;;;;;;5036605;28;20021;-74
2022/04/15 05:31:54;;;;;;;2.53;1.05;;;26.00;90.60;;;;;;5034329;28;20061;-74
2022/04/15 05:34:21;;;;;;;0.70;0.30;;;25.70;90.80;;;;;;5051354;28;20029;-75
2022/04/15 05:36:49;;;;;;;0.52;0.10;;;25.60;91.30;;;;;;5034423;28;20353;-74
2022/04/15 05:39:16;;;;;;;0.55;0.20;;;25.40;90.90;;;;;;5058881;28;20024;-74
2022/04/15 05:41:43;;;;;;;0.98;0.40;;;25.20;91.40;;;;;;5044690;28;20071;-72
2022/04/15 05:44:13;;;;;;;0.73;0.10;;;25.10;91.90;;;;;;5030686;28;20387;-72
2022/04/15 05:46:42;;;;;;;0.55;0.10;;;25.00;91.80;;;;;;5046388;28;20124;-73
2022/04/15 05:49:14;;;;;;;1.63;0.50;;;24.90;91.80;;;;;;5051018;28;20490;-73
2022/04/15 05:51:48;;;;;;;0.40;0.20;;;24.80;92.10;;;;;;5039325;28;20021;-76
2022/04/15 05:54:15;;;;;;;1.33;0.20;;;24.70;91.80;;;;;;5039697;28;20030;-76
2022/04/15 05:56:43;;;;;;;0.77;0.28;;;24.70;92.40;;;;;;5035538;28;20040;-74
2022/04/15 05:59:10;;;;;;;4.70;1.50;;;24.70;91.90;;;;;;5042006;28;20056;-74
2022/04/15 06:01:37;;;;;;;6.90;2.78;;;24.70;92.20;;;;;;5050303;28;20083;-73
2022/04/15 06:04:05;;;;;;;16.90;8.25;;;24.60;92.20;;;;;;5054357;28;20032;-75
2022/04/15 06:06:32;;;;;;;29.33;12.80;;;24.60;92.70;;;;;;5046150;28;20041;-76
2022/04/15 06:09:00;;;;;;;19.52;10.20;;;24.60;92.80;;;;;;5053494;28;20037;-76
2022/04/15 06:11:27;;;;;;;15.35;8.20;;;24.60;92.80;;;;;;5050038;28;20021;-75
2022/04/15 06:13:54;;;;;;;33.05;18.40;;;24.60;92.60;;;;;;5047282;28;20021;-75
2022/04/15 06:16:22;;;;;;;45.75;24.67;;;24.50;92.80;;;;;;5043609;28;20376;-75
2022/04/15 06:18:49;;;;;;;18.23;10.52;;;24.60;92.50;;;;;;5039266;28;20017;-74
2022/04/15 06:21:16;;;;;;;20.52;11.05;;;24.50;92.40;;;;;;5055100;28;20026;-72
2022/04/15 06:23:44;;;;;;;10.52;2.75;;;24.50;93.20;;;;;;5040177;28;20059;-74
2022/04/15 06:26:11;;;;;;;4.55;2.47;;;24.50;93.20;;;;;;5055258;28;20032;-73
2022/04/15 06:28:38;;;;;;;4.75;2.65;;;24.40;92.40;;;;;;5043923;28;20339;-75
2022/04/15 06:31:06;;;;;;;4.15;1.48;;;24.50;93.70;;;;;;5042238;28;20029;-72
2022/04/15 06:33:52;;;;;;;4.38;2.53;;;24.50;92.80;;;;;;5036437;28;20037;-76
2022/04/15 06:36:22;;;;;;;3.70;0.80;;;24.50;93.10;;;;;;5042380;28;20096;-72
2022/04/15 06:38:50;;;;;;;1.85;0.55;;;24.60;93.00;;;;;;5041785;28;20075;-74
2022/04/15 06:41:22;;;;;;;4.13;0.90;;;24.60;93.00;;;;;;5043832;28;20021;-73
2022/04/15 06:43:50;;;;;;;0.88;0.30;;;24.50;92.50;;;;;;5047389;28;20525;-74
2022/04/15 06:46:17;;;;;;;3.30;0.15;;;24.40;93.10;;;;;;5049395;28;20053;-75
2022/04/15 06:48:44;;;;;;;2.50;0.57;;;24.30;93.80;;;;;;5050186;28;20049;-73
2022/04/15 06:51:13;;;;;;;2.15;0.47;;;24.20;93.70;;;;;;5050410;28;20454;-73
2022/04/15 06:53:40;;;;;;;1.85;0.28;;;24.10;93.80;;;;;;5044545;28;20124;-75
2022/04/15 06:56:10;;;;;;;1.92;0.30;;;24.00;93.70;;;;;;5041057;28;20150;-77
2022/04/15 06:58:37;;;;;;;2.58;0.45;;;23.90;94.30;;;;;;5043835;28;20104;-73
2022/04/15 07:01:05;;;;;;;1.92;0.30;;;23.90;94.80;;;;;;5039157;28;22055;-73
2022/04/15 07:03:32;;;;;;;1.23;0.43;;;23.80;95.40;;;;;;5056322;28;20497;-74
2022/04/15 07:05:59;;;;;;;2.47;0.80;;;23.80;95.10;;;;;;5062582;28;20037;-74
2022/04/15 07:08:27;;;;;;;0.40;0.10;;;23.70;95.20;;;;;;5041636;28;20518;-71
2022/04/15 07:10:54;;;;;;;1.27;0.28;;;23.70;95.90;;;;;;5053285;28;20029;-71
2022/04/15 07:13:21;;;;;;;0.50;0.10;;;23.60;95.80;;;;;;5039293;28;20128;-74
2022/04/15 07:15:50;;;;;;;3.03;0.47;;;23.60;95.80;;;;;;5041368;28;20039;-74
2022/04/15 07:18:19;;;;;;;0.55;0.47;;;23.50;95.70;;;;;;5039499;28;20518;-72
2022/04/15 07:20:46;;;;;;;0.50;0.20;;;23.40;96.00;;;;;;5057498;28;20033;-74
2022/04/15 07:23:13;;;;;;;1.55;0.20;;;23.30;96.30;;;;;;5047004;28;20094;-72
2022/04/15 07:25:42;;;;;;;1.33;0.60;;;23.20;95.70;;;;;;5041685;28;20438;-73
2022/04/15 07:28:09;;;;;;;1.00;0.40;;;23.10;95.60;;;;;;5040408;28;20043;-72
2022/04/15 07:30:37;;;;;;;2.97;0.60;;;23.10;96.30;;;;;;5049652;28;20032;-73
2022/04/15 07:33:04;;;;;;;1.25;0.45;;;23.00;96.60;;;;;;5053463;28;20090;-73
2022/04/15 07:35:32;;;;;;;0.82;0.43;;;22.90;96.80;;;;;;5051652;28;20454;-73
2022/04/15 07:37:59;;;;;;;0.90;0.40;;;22.90;97.10;;;;;;5045801;28;20386;-73
2022/04/15 07:40:27;;;;;;;1.67;0.40;;;22.80;97.10;;;;;;5039771;28;20104;-74
2022/04/15 07:42:57;;;;;;;1.08;0.30;;;22.80;97.70;;;;;;5031749;28;20021;-73
2022/04/15 07:45:25;;;;;;;1.77;0.88;;;22.80;98.30;;;;;;5045403;28;20057;-73
2022/04/15 07:47:53;;;;;;;1.33;0.63;;;22.80;98.00;;;;;;5033684;28;20553;-72
2022/04/15 07:50:25;;;;;;;1.77;0.63;;;22.90;97.90;;;;;;5049152;28;20046;-73
2022/04/15 07:52:57;;;;;;;2.25;0.77;;;23.00;97.90;;;;;;5041705;28;20029;-72
2022/04/15 07:55:25;;;;;;;3.17;1.45;;;22.90;98.00;;;;;;5032925;28;20026;-72
2022/04/15 07:57:53;;;;;;;4.03;1.33;;;22.70;97.70;;;;;;5036281;28;20030;-76
2022/04/15 08:00:21;;;;;;;1.80;1.05;;;22.60;97.90;;;;;;5031520;28;20029;-74
2022/04/15 08:02:49;;;;;;;1.67;0.68;;;22.40;98.50;;;;;;5041811;28;20028;-72
2022/04/15 08:05:16;;;;;;;2.85;0.80;;;22.30;98.60;;;;;;5049826;28;20025;-73
2022/04/15 08:07:43;;;;;;;2.00;0.70;;;22.20;99.00;;;;;;5040940;28;20041;-73
2022/04/15 08:10:11;;;;;;;2.60;0.88;;;22.20;99.10;;;;;;5042010;28;20047;-74
2022/04/15 08:12:38;;;;;;;1.40;0.63;;;22.00;99.20;;;;;;5049925;28;20024;-73
2022/04/15 08:15:06;;;;;;;1.70;0.70;;;22.00;99.40;;;;;;5042446;28;20029;-76
2022/04/15 08:17:35;;;;;;;3.25;0.85;;;21.90;99.80;;;;;;5036295;28;20028;-73
2022/04/15 08:20:03;;;;;;;2.53;0.57;;;21.90;99.90;;;;;;5037605;28;20116;-73
2022/04/15 08:22:35;;;;;;;2.65;0.60;;;21.80;99.90;;;;;;5049474;28;20081;-73
2022/04/15 08:25:04;;;;;;;1.48;0.40;;;21.80;99.90;;;;;;5053921;28;20035;-73
2022/04/15 08:27:33;;;;;;;1.65;0.50;;;21.70;99.90;;;;;;5042655;28;20037;-75
2022/04/15 08:30:01;;;;;;;2.60;0.70;;;21.60;99.90;;;;;;5055874;28;20025;-72
2022/04/15 08:32:33;;;;;;;3.92;0.70;;;21.50;99.90;;;;;;5052588;28;20037;-71
2022/04/15 08:35:02;;;;;;;2.97;0.50;;;21.40;99.90;;;;;;5075550;28;20020;-74
2022/04/15 08:37:29;;;;;;;1.52;0.50;;;21.40;99.90;;;;;;5043851;28;20033;-73
2022/04/15 08:39:57;;;;;;;4.82;0.80;;;21.30;99.90;;;;;;5039843;28;20032;-73
2022/04/15 08:42:24;;;;;;;1.77;0.63;;;21.30;99.90;;;;;;5051301;28;20017;-73
2022/04/15 08:44:52;;;;;;;1.30;0.55;;;21.20;99.90;;;;;;5056431;28;20474;-72
2022/04/15 08:47:24;;;;;;;3.10;0.70;;;21.30;99.90;;;;;;5046347;28;20041;-74
2022/04/15 08:49:51;;;;;;;2.42;0.70;;;21.30;99.90;;;;;;5050400;28;20491;-73
2022/04/15 08:52:19;;;;;;;1.10;0.30;;;21.20;99.90;;;;;;5052727;28;20029;-72
2022/04/15 08:54:46;;;;;;;1.20;0.65;;;21.10;99.90;;;;;;5053865;28;20501;-73
2022/04/15 08:57:14;;;;;;;6.70;0.60;;;21.10;99.90;;;;;;5035607;28;20479;-73
2022/04/15 08:59:47;;;;;;;1.77;0.60;;;21.00;99.90;;;;;;5037324;28;20069;-73
2022/04/15 09:02:38;;;;;;;2.10;0.40;;;20.90;99.90;;;;;;5053153;28;20452;-74
2022/04/15 09:05:07;;;;;;;3.40;0.70;;;20.90;99.90;;;;;;5064498;28;20558;-72
2022/04/15 09:07:36;;;;;;;2.60;0.70;;;20.80;99.90;;;;;;5036609;28;20041;-71
2022/04/15 09:10:06;;;;;;;3.92;0.60;;;20.80;99.90;;;;;;5034662;28;20024;-74
2022/04/15 09:12:37;;;;;;;2.80;0.95;;;20.80;99.90;;;;;;5034732;28;20030;-72
2022/04/15 09:15:08;;;;;;;2.92;0.70;;;20.80;99.90;;;;;;5044282;28;20029;-71
2022/04/15 09:17:40;;;;;;;3.63;0.68;;;20.80;99.90;;;;;;5037544;28;20034;-72
2022/04/15 09:20:11;;;;;;;3.67;1.20;;;20.70;99.90;;;;;;5039925;28;20032;-72
2022/04/15 09:22:39;;;;;;;2.67;1.88;;;20.60;99.90;;;;;;5038699;28;20484;-73
2022/04/15 09:25:06;;;;;;;4.32;2.17;;;20.60;99.90;;;;;;5044514;28;20037;-73
2022/04/15 09:27:36;;;;;;;3.17;2.30;;;20.50;99.90;;;;;;5036838;28;20042;-72
2022/04/15 09:30:04;;;;;;;4.18;1.70;;;20.50;99.90;;;;;;5042986;28;20103;-73
2022/04/15 09:32:32;;;;;;;5.70;2.15;;;20.40;99.90;;;;;;5049297;28;20044;-74
2022/04/15 09:35:07;;;;;;;3.90;2.20;;;20.40;99.90;;;;;;5047152;28;20395;-71
2022/04/15 09:37:45;;;;;;;4.65;2.10;;;20.40;99.90;;;;;;5042996;28;20032;-73
2022/04/15 09:40:18;;;;;;;4.88;1.95;;;20.40;99.90;;;;;;5052649;28;20120;-73
2022/04/15 09:42:51;;;;;;;3.25;1.30;;;20.40;99.90;;;;;;5034710;28;20025;-72
2022/04/15 09:45:22;;;;;;;3.83;1.40;;;20.40;99.90;;;;;;5032950;28;20139;-72
2022/04/15 09:47:57;;;;;;;3.08;1.70;;;20.50;99.90;;;;;;5032006;28;20041;-74
2022/04/15 09:50:31;;;;;;;4.50;1.67;;;20.40;99.90;;;;;;5035725;28;20022;-75
2022/04/15 09:53:19;;;;;;;6.07;1.25;;;20.30;99.90;;;;;;5037658;28;20037;-76
2022/04/15 09:55:51;;;;;;;4.75;1.23;;;20.30;99.90;;;;;;5048282;28;20030;-72
2022/04/15 09:58:20;;;;;;;4.82;1.35;;;20.20;99.90;;;;;;5038077;28;20365;-72
2022/04/15 10:00:51;;;;;;;7.50;2.25;;;20.10;99.90;;;;;;5037994;28;20083;-74
2022/04/15 10:03:23;;;;;;;2.58;1.00;;;20.00;99.90;;;;;;5057637;28;20025;-72
2022/04/15 10:05:54;;;;;;;3.28;1.48;;;20.00;99.90;;;;;;5053915;28;20064;-73
2022/04/15 10:08:23;;;;;;;1.50;1.27;;;19.90;99.90;;;;;;5033445;28;20053;-73
2022/04/15 10:10:51;;;;;;;3.22;1.65;;;19.80;99.90;;;;;;5055844;28;20021;-74
2022/04/15 10:13:20;;;;;;;3.88;1.45;;;19.80;99.90;;;;;;5043940;28;20045;-74
2022/04/15 10:15:49;;;;;;;4.25;1.98;;;19.70;99.90;;;;;;5038889;28;20087;-73
2022/04/15 10:18:17;;;;;;;3.03;1.58;;;19.70;99.90;;;;;;5036679;28;20025;-72
2022/04/15 10:20:44;;;;;;;3.85;1.60;;;19.70;99.90;;;;;;5050732;28;20032;-73
2022/04/15 10:23:13;;;;;;;6.43;2.22;;;19.60;99.90;;;;;;5045991;28;20107;-72
2022/04/15 10:25:48;;;;;;;2.13;1.27;;;19.60;99.90;;;;;;5043759;28;20476;-74
2022/04/15 10:28:20;;;;;;;7.38;1.77;;;19.60;99.90;;;;;;5033998;28;20033;-73
2022/04/15 10:31:11;;;;;;;2.42;1.60;;;19.50;99.90;;;;;;5042286;28;20032;-74
2022/04/15 10:33:40;;;;;;;1.58;0.95;;;19.50;99.90;;;;;;5045962;28;20115;-74
2022/04/15 10:36:33;;;;;;;2.38;1.10;;;19.40;99.90;;;;;;5041954;28;20029;-75
2022/04/15 10:39:06;;;;;;;2.45;1.05;;;19.40;99.90;;;;;;5032630;28;20032;-74
2022/04/15 10:41:43;;;;;;;5.28;1.20;;;19.30;99.90;;;;;;5038615;28;20037;-74
2022/04/15 10:44:14;;;;;;;2.95;1.45;;;19.30;99.90;;;;;;5034718;28;21267;-72
2022/04/15 10:46:42;;;;;;;2.33;1.35;;;19.20;99.90;;;;;;5034214;28;20040;-73
2022/04/15 10:49:23;;;;;;;2.92;1.30;;;19.10;99.90;;;;;;5046629;28;20033;-73
2022/04/15 10:52:21;;;;;;;2.42;1.58;;;19.10;99.90;;;;;;5034486;28;20121;-73
2022/04/15 10:54:58;;;;;;;5.63;3.45;;;19.00;99.90;;;;;;5033663;28;20461;-72
2022/04/15 10:57:32;;;;;;;3.20;2.45;;;19.00;99.90;;;;;;5040832;28;20368;-74
2022/04/15 11:02:46;;;;;;;;;;;18.90;99.90;;;;;;5048656;28;20038;-74
2022/04/15 11:05:32;;;;;;;2.03;1.23;;;18.80;99.90;;;;;;5059296;28;19967;-73
2022/04/15 11:08:06;;;;;;;1.95;0.98;;;18.80;99.90;;;;;;5034833;28;20052;-74
2022/04/15 11:11:04;;;;;;;3.85;1.05;;;18.70;99.90;;;;;;5052509;28;20040;-73
2022/04/15 11:13:40;;;;;;;3.08;1.00;;;18.60;99.90;;;;;;5039250;28;20407;-73
2022/04/15 11:16:09;;;;;;;2.85;1.20;;;18.60;99.90;;;;;;5032556;28;20128;-75
2022/04/15 11:18:50;;;;;;;2.42;1.08;;;18.50;99.90;;;;;;5032627;28;20656;-74
2022/04/15 11:21:22;;;;;;;2.60;1.05;;;18.50;99.90;;;;;;5039791;28;20027;-75
2022/04/15 11:23:52;;;;;;;4.88;0.65;;;18.40;99.90;;;;;;5057673;28;20422;-74
2022/04/15 11:26:25;;;;;;;2.05;0.93;;;18.40;99.90;;;;;;5056919;28;20057;-73
2022/04/15 11:28:54;;;;;;;2.72;1.05;;;18.30;99.90;;;;;;5064101;28;20049;-73
2022/04/15 11:31:30;;;;;;;3.35;0.80;;;18.30;99.90;;;;;;5050024;28;20447;-73
2022/04/15 11:34:16;;;;;;;2.58;1.15;;;18.30;99.90;;;;;;5045560;28;20036;-73
2022/04/15 11:36:43;;;;;;;2.55;1.15;;;18.20;99.90;;;;;;5032145;28;20412;-73
2022/04/15 11:39:13;;;;;;;2.33;1.08;;;18.20;99.90;;;;;;5031533;28;20025;-74
2022/04/15 11:41:44;;;;;;;1.90;1.40;;;18.10;99.90;;;;;;5034000;28;20108;-73
2022/04/15 11:44:13;;;;;;;2.25;0.82;;;18.10;99.90;;;;;;5032402;28;20043;-72
2022/04/15 11:46:45;;;;;;;1.98;0.77;;;18.10;99.90;;;;;;5031985;28;20414;-74
2022/04/15 11:49:19;;;;;;;2.30;0.75;;;18.00;99.90;;;;;;5035071;28;20022;-74
2022/04/15 11:51:54;;;;;;;3.85;1.25;;;17.90;99.90;;;;;;5030248;28;20057;-74
2022/04/15 11:54:33;;;;;;;2.00;0.80;;;17.90;99.90;;;;;;5033057;28;20152;-73
2022/04/15 11:57:04;;;;;;;2.85;1.30;;;17.80;99.90;;;;;;5031674;28;20037;-72
2022/04/15 11:59:38;;;;;;;2.15;1.55;;;17.80;99.90;;;;;;5032368;28;20029;-74
2022/04/15 12:02:06;;;;;;;2.67;1.60;;;17.80;99.90;;;;;;5035131;28;20029;-73
2022/04/15 12:04:34;;;;;;;4.00;1.40;;;17.80;99.90;;;;;;5033306;28;20387;-72
2022/04/15 12:07:03;;;;;;;4.15;1.92;;;17.80;99.90;;;;;;5034519;28;20045;-72
2022/04/15 12:09:30;;;;;;;4.70;1.75;;;17.80;99.90;;;;;;5029673;28;20029;-72
2022/04/15 12:12:01;;;;;;;2.70;2.15;;;17.70;99.90;;;;;;5029765;28;20039;-73
2022/04/15 12:14:39;;;;;;;2.85;2.22;;;17.70;99.90;;;;;;5033613;28;20044;-71
2022/04/15 12:17:14;;;;;;;4.55;2.75;;;17.70;99.90;;;;;;5032937;28;20036;-72
2022/04/15 12:19:43;;;;;;;3.60;2.17;;;17.70;99.90;;;;;;5030909;28;20032;-71
2022/04/15 12:22:11;;;;;;;4.78;2.47;;;17.70;99.90;;;;;;5052339;28;20056;-73
2022/04/15 12:24:38;;;;;;;6.40;3.15;;;17.60;99.90;;;;;;5050933;28;20025;-71
2022/04/15 12:27:05;;;;;;;4.13;1.90;;;17.60;99.90;;;;;;5038703;28;20636;-73
2022/04/15 12:29:48;;;;;;;4.85;2.72;;;17.60;99.90;;;;;;5034069;28;20042;-73
2022/04/15 12:32:24;;;;;;;4.43;3.08;;;17.60;99.90;;;;;;5029995;28;20549;-73
2022/04/15 12:34:55;;;;;;;5.85;3.20;;;17.60;99.90;;;;;;5031130;28;20090;-73
2022/04/15 12:37:49;;;;;;;7.80;4.60;;;17.60;99.90;;;;;;5031044;28;20021;-72
2022/04/15 12:40:22;;;;;;;8.35;5.07;;;17.60;99.90;;;;;;5031792;28;20060;-74
2022/04/15 12:42:51;;;;;;;9.98;5.45;;;17.60;99.90;;;;;;5052934;28;20104;-74
2022/04/15 12:45:21;;;;;;;9.07;5.65;;;17.60;99.90;;;;;;5045213;28;20045;-73
2022/04/15 12:48:07;;;;;;;7.55;5.05;;;17.70;99.90;;;;;;5053682;28;21487;-75
2022/04/15 12:50:36;;;;;;;9.43;5.50;;;17.70;99.90;;;;;;5046480;28;20025;-74
2022/04/15 12:53:18;;;;;;;8.00;5.82;;;17.70;99.90;;;;;;5038622;28;20051;-74
2022/04/15 12:55:47;;;;;;;9.52;6.50;;;17.60;99.90;;;;;;5037812;28;20025;-73
2022/04/15 12:58:19;;;;;;;9.70;5.93;;;17.60;99.90;;;;;;5037792;28;20489;-73
2022/04/15 13:00:48;;;;;;;8.07;4.30;;;17.60;99.90;;;;;;5053286;28;20380;-73